createdAt,value
2023-01-09T00:00:21.778Z,91137.69
2023-01-09T00:02:48.373Z,91128.34
2023-01-09T00:05:17.016Z,91126.31
2023-01-09T00:07:43.456Z,91127.91
2023-01-09T00:10:11.319Z,91115.38
2023-01-09T00:12:38.430Z,91116.69
2023-01-09T00:15:06.287Z,91116.91
2023-01-09T00:17:32.719Z,91118.44
2023-01-09T00:19:59.174Z,91135.97
2023-01-09T00:22:25.593Z,91130.34
2023-01-09T00:24:51.997Z,91129.84
2023-01-09T00:27:18.431Z,91120.41
2023-01-09T00:29:46.114Z,91123.28
2023-01-09T00:32:12.560Z,91120.41
2023-01-09T00:34:39.418Z,91116.53
2023-01-09T00:37:11.665Z,91115.53
2023-01-09T00:39:39.568Z,91121.69
2023-01-09T00:42:08.088Z,91111.03
2023-01-09T00:44:42.510Z,91110.22
2023-01-09T00:47:14.601Z,91119.84
2023-01-09T00:49:42.535Z,91105.78
2023-01-09T00:52:11.721Z,91095.84
2023-01-09T00:54:39.350Z,91091.13
2023-01-09T00:57:06.631Z,91100.50
2023-01-09T00:59:33.162Z,91090.34
2023-01-09T01:01:59.969Z,91092.66
2023-01-09T01:04:44.925Z,91098.59
2023-01-09T01:07:29.859Z,91105.38
2023-01-09T01:09:56.323Z,91096.75
2023-01-09T01:12:22.787Z,91091.78
2023-01-09T01:14:49.250Z,91089.47
2023-01-09T01:17:15.725Z,91096.00
2023-01-09T01:19:42.142Z,91094.69
2023-01-09T01:22:08.591Z,91097.34
2023-01-09T01:24:35.245Z,91103.84
2023-01-09T01:27:01.826Z,91117.59
2023-01-09T01:29:28.730Z,91108.53
2023-01-09T01:31:55.269Z,91105.47
2023-01-09T01:34:21.801Z,91110.63
2023-01-09T01:36:48.308Z,91106.47
2023-01-09T01:39:14.813Z,91097.84
2023-01-09T01:41:41.222Z,91090.38
2023-01-09T01:44:46.259Z,91100.25
2023-01-09T01:47:14.418Z,91111.97
2023-01-09T01:49:40.937Z,91109.16
2023-01-09T01:52:07.580Z,91119.63
2023-01-09T01:54:34.120Z,91117.56
2023-01-09T01:57:03.492Z,91124.44
2023-01-09T01:59:50.272Z,91115.56
2023-01-09T02:02:22.260Z,91112.25
2023-01-09T02:04:52.156Z,91116.41
2023-01-09T02:07:18.556Z,91120.88
2023-01-09T02:09:45.182Z,91113.56
2023-01-09T02:12:25.661Z,91125.97
2023-01-09T02:15:06.806Z,91115.59
2023-01-09T02:17:54.358Z,91128.09
2023-01-09T02:20:41.268Z,91126.81
2023-01-09T02:23:25.741Z,91135.38
2023-01-09T02:26:19.555Z,91132.84
2023-01-09T02:29:40.085Z,91136.97
2023-01-09T02:32:30.797Z,91132.78
2023-01-09T02:35:09.554Z,91132.00
2023-01-09T02:37:54.515Z,91128.09
2023-01-09T02:40:33.695Z,91122.91
2023-01-09T02:43:01.167Z,91132.22
2023-01-09T02:45:27.767Z,91134.84
2023-01-09T02:47:54.292Z,91125.47
2023-01-09T02:50:31.243Z,91141.59
2023-01-09T02:53:17.224Z,91158.31
2023-01-09T02:55:58.746Z,91179.19
2023-01-09T02:58:35.806Z,91168.75
2023-01-09T03:01:20.689Z,91173.41
2023-01-09T03:03:57.646Z,91168.75
2023-01-09T03:06:44.482Z,91167.41
2023-01-09T03:09:20.279Z,91176.78
2023-01-09T03:11:52.905Z,91190.59
2023-01-09T03:14:23.953Z,91189.38
2023-01-09T03:16:56.831Z,91187.00
2023-01-09T03:19:27.908Z,91171.88
2023-01-09T03:21:56.471Z,91176.56
2023-01-09T03:24:22.895Z,91178.16
2023-01-09T03:26:49.941Z,91204.97
2023-01-09T03:29:16.353Z,91204.47
2023-01-09T03:31:42.805Z,91221.91
2023-01-09T03:34:09.229Z,91228.16
2023-01-09T03:36:35.628Z,91231.25
2023-01-09T03:39:02.048Z,91234.38
2023-01-09T03:41:28.464Z,91270.03
2023-01-09T03:43:54.897Z,91287.50
2023-01-09T03:46:21.476Z,91287.00
2023-01-09T03:48:48.385Z,91275.03
2023-01-09T03:51:14.863Z,91308.84
2023-01-09T03:53:41.322Z,91295.28
2023-01-09T03:56:08.036Z,91291.16
2023-01-09T03:58:34.465Z,91297.38
2023-01-09T04:01:03.660Z,91315.84
2023-01-09T04:03:30.313Z,91325.97
2023-01-09T04:05:56.899Z,91328.31
2023-01-09T04:08:23.332Z,91342.63
2023-01-09T04:10:51.403Z,91353.50
2023-01-09T04:13:18.274Z,91362.34
2023-01-09T04:15:44.689Z,91379.94
2023-01-09T04:18:11.271Z,91387.75
2023-01-09T04:20:37.770Z,91383.81
2023-01-09T04:23:04.270Z,91384.84
2023-01-09T04:25:30.885Z,91368.22
2023-01-09T04:27:57.335Z,91388.78
2023-01-09T04:30:23.768Z,91382.50
2023-01-09T04:32:51.882Z,91396.25
2023-01-09T04:35:19.328Z,91421.91
2023-01-09T04:37:45.781Z,91425.03
2023-01-09T04:40:12.681Z,91447.94
2023-01-09T04:42:40.101Z,91437.69
2023-01-09T04:45:08.803Z,91458.09
2023-01-09T04:47:35.313Z,91436.28
2023-01-09T04:50:01.912Z,91447.94
2023-01-09T04:52:28.718Z,91460.91
2023-01-09T04:54:55.215Z,91460.59
2023-01-09T04:57:21.991Z,91464.72
2023-01-09T04:59:48.881Z,91479.56
2023-01-09T05:02:15.445Z,91492.25
2023-01-09T05:04:42.097Z,91490.41
2023-01-09T05:07:08.543Z,91496.41
2023-01-09T05:09:36.061Z,91495.16
2023-01-09T05:12:02.669Z,91503.44
2023-01-09T05:14:29.125Z,91495.97
2023-01-09T05:16:55.550Z,91506.44
2023-01-09T05:19:22.536Z,91517.88
2023-01-09T05:21:49.227Z,91529.06
2023-01-09T05:24:15.717Z,91534.16
2023-01-09T05:26:42.177Z,91520.84
2023-01-09T05:29:10.077Z,91526.38
2023-01-09T05:31:36.588Z,91533.16
2023-01-09T05:34:03.076Z,91552.28
2023-01-09T05:36:29.724Z,91545.53
2023-01-09T05:38:57.863Z,91551.28
2023-01-09T05:41:25.509Z,91551.28
2023-01-09T05:43:52.046Z,91547.91
2023-01-09T05:46:18.583Z,91560.56
2023-01-09T05:48:45.120Z,91554.25
2023-01-09T05:51:12.412Z,91558.97
2023-01-09T05:53:38.897Z,91558.53
2023-01-09T05:56:05.548Z,91565.75
2023-01-09T05:58:32.001Z,91562.59
2023-01-09T06:00:59.008Z,91589.13
2023-01-09T06:03:25.481Z,91568.25
2023-01-09T06:05:51.891Z,91568.75
2023-01-09T06:08:18.367Z,91569.72
2023-01-09T06:10:46.063Z,91563.50
2023-01-09T06:13:12.603Z,91573.34
2023-01-09T06:15:39.301Z,91562.44
2023-01-09T06:18:05.876Z,91557.47
2023-01-09T06:20:32.427Z,91539.00
2023-01-09T06:22:58.856Z,91536.50
2023-01-09T06:25:25.328Z,91528.56
2023-01-09T06:27:52.171Z,91525.66
2023-01-09T06:30:19.664Z,91535.31
2023-01-09T06:32:49.203Z,91524.97
2023-01-09T06:35:20.304Z,91528.19
2023-01-09T06:37:50.083Z,91542.44
2023-01-09T06:40:17.739Z,91532.81
2023-01-09T06:42:48.396Z,91531.31
2023-01-09T06:45:16.215Z,91523.38
2023-01-09T06:47:42.654Z,91523.66
2023-01-09T06:50:09.978Z,91535.84
2023-01-09T06:52:37.546Z,91530.13
2023-01-09T06:55:04.350Z,91543.56
2023-01-09T06:57:30.801Z,91542.53
2023-01-09T06:59:57.814Z,91541.50
2023-01-09T07:02:24.704Z,91542.78
2023-01-09T07:04:51.195Z,91532.94
2023-01-09T07:07:19.371Z,91533.59
2023-01-09T07:09:45.796Z,91542.38
2023-01-09T07:12:12.849Z,91535.94
2023-01-09T07:14:39.339Z,91528.06
2023-01-09T07:17:05.843Z,91521.44
2023-01-09T07:19:32.545Z,91528.72
2023-01-09T07:21:59.034Z,91537.84
2023-01-09T07:24:25.472Z,91536.50
2023-01-09T07:26:51.889Z,91537.09
2023-01-09T07:29:18.353Z,91530.69
2023-01-09T07:31:44.777Z,91540.16
2023-01-09T07:34:11.207Z,91536.66
2023-01-09T07:36:37.658Z,91552.22
2023-01-09T07:39:04.182Z,91550.94
2023-01-09T07:41:30.789Z,91548.53
2023-01-09T07:43:57.720Z,91550.16
2023-01-09T07:46:24.290Z,91564.75
2023-01-09T07:48:50.818Z,91561.59
2023-01-09T07:51:17.241Z,91572.28
2023-01-09T07:53:43.719Z,91568.94
2023-01-09T07:56:10.214Z,91579.13
2023-01-09T07:58:36.823Z,91567.38
2023-01-09T08:01:03.266Z,91566.94
2023-01-09T08:03:29.847Z,91570.91
2023-01-09T08:05:56.310Z,91583.13
2023-01-09T08:08:23.438Z,91572.19
2023-01-09T08:10:49.965Z,91576.31
2023-01-09T08:13:16.775Z,91576.84
2023-01-09T08:15:43.273Z,91576.09
2023-01-09T08:18:09.725Z,91586.03
2023-01-09T08:20:36.107Z,91576.84
2023-01-09T08:23:02.644Z,91567.91
2023-01-09T08:25:29.540Z,91565.94
2023-01-09T08:27:55.956Z,91570.28
2023-01-09T08:30:22.450Z,91572.16
2023-01-09T08:32:51.448Z,91578.13
2023-01-09T08:35:18.395Z,91567.72
2023-01-09T08:37:45.898Z,91564.44
2023-01-09T08:40:13.883Z,91572.03
2023-01-09T08:42:58.939Z,91581.69
2023-01-09T08:45:44.297Z,91587.91
2023-01-09T08:48:11.090Z,91587.34
2023-01-09T08:50:37.773Z,91600.06
2023-01-09T08:53:04.267Z,91585.34
2023-01-09T08:55:30.667Z,91574.69
2023-01-09T08:57:57.220Z,91577.28
2023-01-09T09:00:24.517Z,91589.50
2023-01-09T09:02:56.325Z,91588.97
2023-01-09T09:05:24.632Z,91572.16
2023-01-09T09:07:54.687Z,91564.22
2023-01-09T09:10:28.434Z,91564.38
2023-01-09T09:12:57.776Z,91573.31
2023-01-09T09:15:26.450Z,91572.88
2023-01-09T09:17:58.599Z,91560.84
2023-01-09T09:20:27.965Z,91560.31
2023-01-09T09:22:54.660Z,91552.00
2023-01-09T09:25:21.666Z,91562.19
2023-01-09T09:27:49.057Z,91559.47
2023-01-09T09:30:17.830Z,91565.78
2023-01-09T09:32:44.624Z,91574.22
2023-01-09T09:35:11.457Z,91576.09
2023-01-09T09:37:38.211Z,91568.81
2023-01-09T09:40:17.926Z,91574.56
2023-01-09T09:43:35.874Z,91579.31
2023-01-09T09:46:32.941Z,91571.97
2023-01-09T09:49:12.053Z,91584.84
2023-01-09T09:51:54.396Z,91578.63
2023-01-09T09:54:30.307Z,91581.75
2023-01-09T09:56:59.620Z,91591.59
2023-01-09T09:59:32.241Z,91588.88
2023-01-09T10:02:11.906Z,91594.63
2023-01-09T10:04:45.181Z,91598.53
2023-01-09T10:07:21.883Z,91606.34
2023-01-09T10:09:49.891Z,91602.09
2023-01-09T10:12:31.562Z,91588.88
2023-01-09T10:15:16.606Z,91589.16
2023-01-09T10:18:05.856Z,91595.94
2023-01-09T10:20:54.263Z,91581.63
2023-01-09T10:23:32.627Z,91602.50
2023-01-09T10:26:11.453Z,91585.84
2023-01-09T10:29:04.674Z,91581.69
2023-01-09T10:31:52.767Z,91576.75
2023-01-09T10:34:30.660Z,91580.13
2023-01-09T10:37:05.668Z,91571.75
2023-01-09T10:39:41.860Z,91555.13
2023-01-09T10:42:18.832Z,91562.63
2023-01-09T10:44:57.958Z,91551.91
2023-01-09T10:47:29.789Z,91551.06
2023-01-09T10:49:57.206Z,91548.44
2023-01-09T10:52:35.228Z,91551.28
2023-01-09T10:55:17.131Z,91549.59
2023-01-09T10:57:46.795Z,91538.72
2023-01-09T11:00:21.036Z,91553.28
2023-01-09T11:02:48.982Z,91568.28
2023-01-09T11:05:20.612Z,91537.66
2023-01-09T11:08:01.072Z,91533.03
2023-01-09T11:10:47.997Z,91537.69
2023-01-09T11:13:18.635Z,91535.03
2023-01-09T11:15:45.242Z,91518.91
2023-01-09T11:18:21.351Z,91525.97
2023-01-09T11:20:47.848Z,91533.47
2023-01-09T11:23:26.817Z,91526.25
2023-01-09T11:25:55.177Z,91532.25
2023-01-09T11:28:21.687Z,91530.13
2023-01-09T11:31:01.998Z,91529.88
2023-01-09T11:33:42.867Z,91546.47
2023-01-09T11:36:14.850Z,91553.53
2023-01-09T11:38:51.174Z,91553.22
2023-01-09T11:41:22.172Z,91559.47
2023-01-09T11:43:51.892Z,91555.28
2023-01-09T11:46:38.356Z,91564.44
2023-01-09T11:49:17.846Z,91566.97
2023-01-09T11:51:44.332Z,91559.34
2023-01-09T11:54:15.417Z,91563.03
2023-01-09T11:56:42.551Z,91556.25
2023-01-09T11:59:14.666Z,91555.59
2023-01-09T12:02:28.215Z,91541.78
2023-01-09T12:05:03.561Z,91553.75
2023-01-09T12:07:54.686Z,91547.81
2023-01-09T12:10:47.291Z,91550.50
2023-01-09T12:13:30.014Z,91539.59
2023-01-09T12:16:05.851Z,91548.63
2023-01-09T12:18:52.613Z,91549.03
2023-01-09T12:21:30.705Z,91540.34
2023-01-09T12:24:08.676Z,91540.13
2023-01-09T12:26:47.229Z,91537.34
2023-01-09T12:29:46.087Z,91548.66
2023-01-09T12:32:15.560Z,91556.38
2023-01-09T12:34:56.537Z,91554.78
2023-01-09T12:37:41.312Z,91556.81
2023-01-09T12:40:41.068Z,91543.03
2023-01-09T12:43:39.604Z,91564.03
2023-01-09T12:46:18.045Z,91549.59
2023-01-09T12:48:59.587Z,91571.09
2023-01-09T12:51:37.800Z,91549.00
2023-01-09T12:54:20.799Z,91547.50
2023-01-09T12:56:57.140Z,91559.84
2023-01-09T12:59:32.898Z,91561.69
2023-01-09T13:02:16.196Z,91570.47
2023-01-09T13:04:55.367Z,91565.41
2023-01-09T13:07:27.002Z,91569.66
2023-01-09T13:10:00.050Z,91567.38
2023-01-09T13:12:30.900Z,91573.94
2023-01-09T13:15:35.041Z,91587.44
2023-01-09T13:18:12.527Z,91571.81
2023-01-09T13:20:47.262Z,91578.13
2023-01-09T13:23:24.484Z,91588.50
2023-01-09T13:25:58.110Z,91588.59
2023-01-09T13:28:31.339Z,91591.50
2023-01-09T13:31:13.081Z,91600.78
2023-01-09T13:33:44.733Z,91597.31
2023-01-09T13:36:28.654Z,91594.69
2023-01-09T13:38:57.818Z,91592.44
2023-01-09T13:41:45.720Z,91583.59
2023-01-09T13:44:18.311Z,91578.78
2023-01-09T13:46:51.146Z,91582.72
2023-01-09T13:49:36.469Z,91570.97
2023-01-09T13:52:26.794Z,91573.53
2023-01-09T13:54:53.450Z,91581.53
2023-01-09T13:57:19.803Z,91574.00
2023-01-09T13:59:49.700Z,91574.47
2023-01-09T14:02:34.695Z,91579.19
2023-01-09T14:05:09.534Z,91580.25
2023-01-09T14:07:38.334Z,91594.31
2023-01-09T14:10:20.882Z,91619.03
2023-01-09T14:12:47.742Z,91629.88
2023-01-09T14:15:29.947Z,91639.13
2023-01-09T14:18:02.377Z,91640.16
2023-01-09T14:20:41.708Z,91668.09
2023-01-09T14:23:45.663Z,91646.22
2023-01-09T14:25:55.478Z,91641.81
2023-01-09T14:28:26.186Z,91642.09
2023-01-09T14:30:52.573Z,91651.25
2023-01-09T14:33:18.985Z,91647.78
2023-01-09T14:35:54.846Z,91650.72
2023-01-09T14:38:50.393Z,91666.28
2023-01-09T14:41:44.189Z,91664.47
2023-01-09T14:44:27.583Z,91672.13
2023-01-09T14:46:58.594Z,91671.13
2023-01-09T14:49:37.259Z,91701.47
2023-01-09T14:52:27.421Z,91709.41
2023-01-09T14:54:59.035Z,91714.28
2023-01-09T14:57:31.866Z,91710.81
2023-01-09T15:00:04.698Z,91720.84
2023-01-09T15:02:34.107Z,91713.28
2023-01-09T15:05:10.632Z,91705.47
2023-01-09T15:07:46.334Z,91716.63
2023-01-09T15:10:20.142Z,91704.78
2023-01-09T15:12:49.768Z,91720.53
2023-01-09T15:15:18.434Z,91709.06
2023-01-09T15:17:58.244Z,91705.44
2023-01-09T15:20:29.065Z,91720.94
2023-01-09T15:22:56.869Z,91720.47
2023-01-09T15:25:34.166Z,91735.47
2023-01-09T15:28:32.173Z,91738.38
2023-01-09T15:31:10.755Z,91744.03
2023-01-09T15:33:40.493Z,91744.59
2023-01-09T15:36:28.320Z,91752.38
2023-01-09T15:38:55.107Z,91763.94
2023-01-09T15:41:45.670Z,91779.03
2023-01-09T15:44:16.210Z,91785.56
2023-01-09T15:46:46.199Z,91780.63
2023-01-09T15:49:13.782Z,91782.97
2023-01-09T15:51:43.681Z,91791.69
2023-01-09T15:54:15.624Z,91784.91
2023-01-09T15:56:44.515Z,91785.09
2023-01-09T15:59:24.624Z,91782.72
2023-01-09T16:02:18.152Z,91797.38
2023-01-09T16:04:44.740Z,91806.56
2023-01-09T16:07:15.334Z,91818.13
2023-01-09T16:09:45.190Z,91808.69
2023-01-09T16:12:20.090Z,91813.78
2023-01-09T16:14:52.452Z,91817.78
2023-01-09T16:17:23.925Z,91810.94
2023-01-09T16:19:58.750Z,91811.75
2023-01-09T16:22:30.724Z,91793.97
2023-01-09T16:25:01.945Z,91809.94
2023-01-09T16:27:32.045Z,91818.31
2023-01-09T16:30:04.882Z,91808.34
2023-01-09T16:32:33.718Z,91809.34
2023-01-09T16:35:05.996Z,91818.56
2023-01-09T16:37:33.353Z,91817.81
2023-01-09T16:40:06.416Z,91806.28
2023-01-09T16:42:51.711Z,91800.31
2023-01-09T16:45:18.292Z,91806.66
2023-01-09T16:47:45.967Z,91817.16
2023-01-09T16:50:13.605Z,91808.72
2023-01-09T16:52:40.049Z,91816.84
2023-01-09T16:55:06.790Z,91812.75
2023-01-09T16:57:34.779Z,91829.88
2023-01-09T17:00:01.705Z,91834.03
2023-01-09T17:02:28.176Z,91835.03
2023-01-09T17:04:55.913Z,91831.09
2023-01-09T17:07:27.792Z,91839.88
2023-01-09T17:09:54.585Z,91853.53
2023-01-09T17:12:22.344Z,91856.13
2023-01-09T17:14:49.761Z,91851.16
2023-01-09T17:17:17.720Z,91848.44
2023-01-09T17:19:46.560Z,91850.56
2023-01-09T17:22:14.238Z,91845.28
2023-01-09T17:24:59.983Z,91839.13
2023-01-09T17:27:48.946Z,91842.50
2023-01-09T17:30:19.688Z,91843.88
2023-01-09T17:32:47.204Z,91844.63
2023-01-09T17:35:15.276Z,91844.75
2023-01-09T17:37:42.055Z,91854.66
2023-01-09T17:40:28.305Z,91856.13
2023-01-09T17:42:54.759Z,91869.50
2023-01-09T17:45:21.443Z,91871.50
2023-01-09T17:47:47.911Z,91887.59
2023-01-09T17:50:19.971Z,91897.84
2023-01-09T17:52:47.555Z,91898.28
2023-01-09T17:55:14.024Z,91905.16
2023-01-09T17:57:42.849Z,91917.75
2023-01-09T18:00:24.787Z,91911.09
2023-01-09T18:02:52.335Z,91921.13
2023-01-09T18:05:19.032Z,91918.09
2023-01-09T18:07:45.562Z,91913.34
2023-01-09T18:10:16.854Z,91923.81
2023-01-09T18:12:43.373Z,91918.19
2023-01-09T18:15:10.121Z,91938.78
2023-01-09T18:17:36.566Z,91937.66
2023-01-09T18:20:04.932Z,91948.81
2023-01-09T18:22:33.446Z,91947.69
2023-01-09T18:25:00.342Z,91940.00
2023-01-09T18:27:26.934Z,91957.72
2023-01-09T18:29:53.357Z,91955.94
2023-01-09T18:32:19.762Z,91964.47
2023-01-09T18:34:46.206Z,91969.78
2023-01-09T18:37:12.680Z,91965.38
2023-01-09T18:39:39.140Z,91967.31
2023-01-09T18:42:05.643Z,91987.03
2023-01-09T18:44:32.061Z,91981.84
2023-01-09T18:46:58.796Z,91986.56
2023-01-09T18:49:25.334Z,91989.94
2023-01-09T18:51:51.858Z,91999.72
2023-01-09T18:54:18.351Z,91997.94
2023-01-09T18:56:44.847Z,92009.53
2023-01-09T18:59:12.219Z,92012.47
2023-01-09T19:01:38.910Z,92015.06
2023-01-09T19:04:05.610Z,92018.00
2023-01-09T19:06:32.092Z,92030.25
2023-01-09T19:08:59.348Z,92036.88
2023-01-09T19:11:25.897Z,92037.56
2023-01-09T19:13:52.361Z,92049.72
2023-01-09T19:16:19.195Z,92043.31
2023-01-09T19:18:45.955Z,92052.44
2023-01-09T19:21:16.139Z,92049.63
2023-01-09T19:23:44.326Z,92049.72
2023-01-09T19:26:25.910Z,92052.19
2023-01-09T19:28:55.355Z,92055.00
2023-01-09T19:31:24.233Z,92058.72
2023-01-09T19:33:53.074Z,92057.94
2023-01-09T19:36:20.322Z,92057.16
2023-01-09T19:38:47.177Z,92058.97
2023-01-09T19:41:19.386Z,92058.41
2023-01-09T19:43:46.974Z,92047.69
2023-01-09T19:46:19.598Z,92051.28
2023-01-09T19:48:46.727Z,92039.34
2023-01-09T19:51:15.396Z,92044.97
2023-01-09T19:53:42.502Z,92042.84
2023-01-09T19:56:17.463Z,92051.75
2023-01-09T19:58:53.140Z,92064.03
2023-01-09T20:01:26.041Z,92061.75
2023-01-09T20:03:53.574Z,92080.16
2023-01-09T20:06:24.640Z,92070.13
2023-01-09T20:08:54.303Z,92084.53
2023-01-09T20:11:21.799Z,92098.84
2023-01-09T20:13:48.236Z,92098.50
2023-01-09T20:16:18.256Z,92105.81
2023-01-09T20:18:44.729Z,92109.97
2023-01-09T20:21:11.862Z,92108.19
2023-01-09T20:23:38.253Z,92108.84
2023-01-09T20:26:04.932Z,92105.69
2023-01-09T20:28:31.456Z,92112.69
2023-01-09T20:30:58.015Z,92104.44
2023-01-09T20:33:24.606Z,92108.72
2023-01-09T20:35:51.067Z,92104.09
2023-01-09T20:38:17.662Z,92096.63
2023-01-09T20:40:44.197Z,92103.50
2023-01-09T20:43:12.426Z,92095.63
2023-01-09T20:45:39.835Z,92109.06
2023-01-09T20:48:06.775Z,92108.38
2023-01-09T20:50:33.215Z,92113.78
2023-01-09T20:52:59.635Z,92114.59
2023-01-09T20:55:26.081Z,92123.69
2023-01-09T20:57:52.553Z,92124.84
2023-01-09T21:00:19.085Z,92135.53
2023-01-09T21:02:45.533Z,92128.00
2023-01-09T21:05:11.991Z,92141.19
2023-01-09T21:07:38.446Z,92147.38
2023-01-09T21:10:05.454Z,92141.06
2023-01-09T21:12:34.850Z,92152.00
2023-01-09T21:15:04.616Z,92152.00
2023-01-09T21:17:36.691Z,92153.13
2023-01-09T21:20:05.650Z,92159.56
2023-01-09T21:22:33.535Z,92165.75
2023-01-09T21:25:00.549Z,92161.13
2023-01-09T21:27:47.673Z,92162.50
2023-01-09T21:30:14.422Z,92167.09
2023-01-09T21:32:41.174Z,92160.56
2023-01-09T21:35:08.184Z,92163.75
2023-01-09T21:37:36.928Z,92160.13
2023-01-09T21:40:05.680Z,92150.53
2023-01-09T21:42:50.819Z,92151.91
2023-01-09T21:45:36.579Z,92157.97
2023-01-09T21:48:05.706Z,92157.88
2023-01-09T21:50:36.583Z,92156.75
2023-01-09T21:53:03.929Z,92157.22
2023-01-09T21:55:32.180Z,92157.53
2023-01-09T21:58:01.236Z,92157.53
2023-01-09T22:00:28.497Z,92160.47
2023-01-09T22:02:55.441Z,92154.63
2023-01-09T22:05:24.523Z,92164.53
2023-01-09T22:07:51.728Z,92153.59
2023-01-09T22:10:18.817Z,92163.84
2023-01-09T22:13:05.490Z,92168.25
2023-01-09T22:15:32.554Z,92171.41
2023-01-09T22:17:59.292Z,92176.78
2023-01-09T22:20:26.020Z,92192.41
2023-01-09T22:22:52.540Z,92194.72
2023-01-09T22:25:19.834Z,92218.88
2023-01-09T22:27:47.965Z,92219.66
2023-01-09T22:30:14.710Z,92223.03
2023-01-09T22:32:41.601Z,92222.81
2023-01-09T22:35:08.817Z,92223.63
2023-01-09T22:37:35.577Z,92225.97
2023-01-09T22:40:02.201Z,92243.53
2023-01-09T22:42:28.731Z,92241.28
2023-01-09T22:44:55.529Z,92236.63
2023-01-09T22:47:22.014Z,92245.69
2023-01-09T22:49:53.266Z,92256.88
2023-01-09T22:52:20.906Z,92261.88
2023-01-09T22:54:48.279Z,92255.84
2023-01-09T22:57:14.816Z,92266.41
2023-01-09T22:59:41.334Z,92269.81
2023-01-09T23:02:08.116Z,92280.28
2023-01-09T23:04:34.915Z,92288.25
2023-01-09T23:07:01.553Z,92288.75
2023-01-09T23:09:28.133Z,92297.97
2023-01-09T23:12:03.422Z,92300.25
2023-01-09T23:14:32.548Z,92308.31
2023-01-09T23:16:59.115Z,92316.72
2023-01-09T23:19:25.842Z,92309.75
2023-01-09T23:21:52.385Z,92326.78
2023-01-09T23:24:19.011Z,92324.78
2023-01-09T23:26:46.378Z,92328.72
2023-01-09T23:29:12.986Z,92331.63
2023-01-09T23:31:39.514Z,92337.22
2023-01-09T23:34:08.056Z,92332.06
2023-01-09T23:36:35.065Z,92346.59
2023-01-09T23:39:02.695Z,92344.13
2023-01-09T23:41:47.893Z,92359.47
2023-01-09T23:44:14.321Z,92359.94
2023-01-09T23:46:40.773Z,92366.16
2023-01-09T23:49:07.283Z,92382.97
2023-01-09T23:51:33.711Z,92389.09
2023-01-09T23:54:00.133Z,92393.91
2023-01-09T23:56:26.594Z,92397.09
2023-01-09T23:58:52.991Z,92392.47
